createdAt,value
2019-05-07T00:01:27.000Z,79.68
2019-05-07T00:06:14.000Z,79.19
2019-05-07T00:11:00.000Z,79.79
2019-05-07T00:15:47.000Z,80.95
2019-05-07T00:20:36.000Z,80.78
2019-05-07T00:25:22.000Z,81.15
2019-05-07T00:30:09.000Z,81.36
2019-05-07T00:34:57.000Z,81.52
2019-05-07T00:39:43.000Z,81.60
2019-05-07T00:44:30.000Z,81.77
2019-05-07T00:49:17.000Z,81.26
2019-05-07T00:54:04.000Z,80.91
2019-05-07T00:58:52.000Z,81.20
2019-05-07T01:03:38.000Z,81.61
2019-05-07T01:08:25.000Z,81.78
2019-05-07T01:13:12.000Z,81.77
2019-05-07T01:17:59.000Z,81.62
2019-05-07T01:22:46.000Z,81.50
2019-05-07T01:27:34.000Z,82.03
2019-05-07T01:32:22.000Z,82.30
2019-05-07T01:37:08.000Z,82.30
2019-05-07T01:41:56.000Z,82.29
2019-05-07T01:46:42.000Z,82.59
2019-05-07T01:51:30.000Z,82.62
2019-05-07T01:56:16.000Z,82.49
2019-05-07T02:01:03.000Z,82.39
2019-05-07T02:05:50.000Z,82.65
2019-05-07T02:10:37.000Z,82.93
2019-05-07T02:15:24.000Z,83.15
2019-05-07T02:20:11.000Z,82.73
2019-05-07T02:24:58.000Z,82.70
2019-05-07T02:29:45.000Z,83.06
2019-05-07T02:34:32.000Z,82.85
2019-05-07T02:39:19.000Z,82.87
2019-05-07T02:44:06.000Z,83.05
2019-05-07T02:48:54.000Z,83.82
2019-05-07T02:53:42.000Z,84.08
2019-05-07T02:58:28.000Z,83.82
2019-05-07T03:03:16.000Z,84.35
2019-05-07T03:08:03.000Z,84.51
2019-05-07T03:12:50.000Z,84.47
2019-05-07T03:17:37.000Z,84.82
2019-05-07T03:22:25.000Z,84.74
2019-05-07T03:27:15.000Z,84.88
2019-05-07T03:32:01.000Z,84.57
2019-05-07T03:36:49.000Z,83.99
2019-05-07T03:41:37.000Z,83.52
2019-05-07T03:46:25.000Z,83.21
2019-05-07T03:51:13.000Z,82.68
2019-05-07T03:56:01.000Z,82.45
2019-05-07T04:00:48.000Z,82.64
2019-05-07T04:05:37.000Z,82.85
2019-05-07T04:10:25.000Z,83.61
2019-05-07T04:15:12.000Z,84.04
2019-05-07T04:20:00.000Z,84.48
2019-05-07T04:24:50.000Z,85.00
2019-05-07T04:29:36.000Z,85.69
2019-05-07T04:34:25.000Z,86.81
2019-05-07T04:39:13.000Z,87.26
2019-05-07T04:44:02.000Z,86.71
2019-05-07T04:48:50.000Z,85.38
2019-05-07T04:53:38.000Z,84.39
2019-05-07T04:58:26.000Z,83.68
2019-05-07T05:08:03.000Z,82.70
2019-05-07T05:12:51.000Z,82.36
2019-05-07T05:17:39.000Z,82.05
2019-05-07T05:22:27.000Z,81.75
2019-05-07T05:27:16.000Z,81.85
2019-05-07T05:32:04.000Z,81.62
2019-05-07T05:36:52.000Z,81.44
2019-05-07T05:41:40.000Z,81.41
2019-05-07T05:46:29.000Z,81.40
2019-05-07T05:51:17.000Z,81.15
2019-05-07T05:56:05.000Z,80.53
2019-05-07T06:00:54.000Z,80.17
2019-05-07T06:05:42.000Z,80.04
2019-05-07T06:10:30.000Z,79.43
2019-05-07T06:15:18.000Z,79.25
2019-05-07T06:20:07.000Z,78.04
2019-05-07T06:24:55.000Z,78.13
2019-05-07T06:29:44.000Z,80.01
2019-05-07T06:34:34.000Z,80.71
2019-05-07T06:39:24.000Z,79.69
2019-05-07T06:44:13.000Z,74.88
2019-05-07T06:49:03.000Z,74.16
2019-05-07T06:53:52.000Z,69.11
2019-05-07T06:58:41.000Z,67.29
2019-05-07T07:03:30.000Z,66.88
2019-05-07T07:08:19.000Z,63.79
2019-05-07T07:13:07.000Z,57.46
2019-05-07T07:17:56.000Z,58.09
2019-05-07T07:22:45.000Z,57.19
2019-05-07T07:27:34.000Z,57.32
2019-05-07T07:32:23.000Z,56.07
2019-05-07T07:37:12.000Z,52.47
2019-05-07T07:42:01.000Z,52.20
2019-05-07T07:46:50.000Z,50.77
2019-05-07T07:51:39.000Z,48.43
2019-05-07T07:56:28.000Z,48.94
2019-05-07T08:01:17.000Z,48.03
2019-05-07T08:06:06.000Z,45.10
2019-05-07T08:10:54.000Z,44.56
2019-05-07T08:15:43.000Z,43.37
2019-05-07T08:20:32.000Z,43.87
2019-05-07T08:25:20.000Z,42.60
2019-05-07T08:30:08.000Z,41.41
2019-05-07T08:34:54.000Z,41.25
2019-05-07T08:39:41.000Z,43.15
2019-05-07T08:44:30.000Z,41.85
2019-05-07T08:49:16.000Z,42.63
2019-05-07T08:54:03.000Z,43.61
2019-05-07T08:58:52.000Z,44.61
2019-05-07T09:03:38.000Z,45.85
2019-05-07T09:08:26.000Z,46.65
2019-05-07T09:13:14.000Z,46.64
2019-05-07T09:18:01.000Z,47.74
2019-05-07T09:22:49.000Z,48.03
2019-05-07T09:27:37.000Z,48.30
2019-05-07T09:32:25.000Z,48.32
2019-05-07T09:37:13.000Z,48.29
2019-05-07T09:42:01.000Z,49.06
2019-05-07T09:46:48.000Z,49.63
2019-05-07T09:51:36.000Z,49.94
2019-05-07T09:56:24.000Z,50.59
2019-05-07T10:01:13.000Z,51.01
2019-05-07T10:06:01.000Z,50.38
2019-05-07T10:10:49.000Z,50.22
2019-05-07T10:15:37.000Z,50.49
2019-05-07T10:20:25.000Z,50.55
2019-05-07T10:25:14.000Z,50.43
2019-05-07T10:30:02.000Z,50.31
2019-05-07T10:34:50.000Z,50.94
2019-05-07T10:39:39.000Z,51.28
2019-05-07T10:44:26.000Z,51.73
2019-05-07T10:49:14.000Z,52.06
2019-05-07T10:54:02.000Z,52.21
2019-05-07T10:58:51.000Z,51.85
2019-05-07T11:03:40.000Z,50.83
2019-05-07T11:08:30.000Z,49.27
2019-05-07T11:13:20.000Z,46.98
2019-05-07T11:18:08.000Z,45.58
2019-05-07T11:22:56.000Z,45.60
2019-05-07T11:27:44.000Z,45.82
2019-05-07T11:32:31.000Z,45.84
2019-05-07T11:37:19.000Z,47.40
2019-05-07T11:42:07.000Z,48.09
2019-05-07T11:46:55.000Z,48.70
2019-05-07T11:51:42.000Z,49.27
2019-05-07T11:56:30.000Z,49.57
2019-05-07T12:01:18.000Z,49.96
2019-05-07T12:06:06.000Z,50.30
2019-05-07T12:10:58.000Z,50.32
2019-05-07T12:15:42.000Z,50.22
2019-05-07T12:20:30.000Z,49.96
2019-05-07T12:25:19.000Z,48.12
2019-05-07T12:30:08.000Z,47.92
2019-05-07T12:34:56.000Z,47.13
2019-05-07T12:39:44.000Z,46.75
2019-05-07T12:44:33.000Z,46.38
2019-05-07T12:49:21.000Z,44.61
2019-05-07T12:54:10.000Z,44.91
2019-05-07T12:58:58.000Z,44.46
2019-05-07T13:03:46.000Z,44.58
2019-05-07T13:08:33.000Z,43.66
2019-05-07T13:13:22.000Z,44.10
2019-05-07T13:18:09.000Z,44.34
2019-05-07T13:22:57.000Z,44.01
2019-05-07T13:27:46.000Z,44.48
2019-05-07T13:32:34.000Z,44.24
2019-05-07T13:37:22.000Z,43.23
2019-05-07T13:42:10.000Z,43.84
2019-05-07T13:46:59.000Z,43.93
2019-05-07T13:51:46.000Z,45.07
2019-05-07T13:56:33.000Z,45.02
2019-05-07T14:01:22.000Z,45.12
2019-05-07T14:06:10.000Z,45.29
2019-05-07T14:10:59.000Z,43.30
2019-05-07T14:15:46.000Z,43.78
2019-05-07T14:20:34.000Z,44.09
2019-05-07T14:25:22.000Z,44.54
2019-05-07T14:30:10.000Z,45.12
2019-05-07T14:34:58.000Z,45.18
2019-05-07T14:39:46.000Z,45.87
2019-05-07T14:44:35.000Z,45.39
2019-05-07T14:49:23.000Z,45.20
2019-05-07T14:54:12.000Z,45.26
2019-05-07T14:59:00.000Z,45.21
2019-05-07T15:03:48.000Z,45.55
2019-05-07T15:08:37.000Z,45.17
2019-05-07T15:13:25.000Z,45.10
2019-05-07T15:18:14.000Z,44.47
2019-05-07T15:23:02.000Z,43.78
2019-05-07T15:27:50.000Z,44.20
2019-05-07T15:32:38.000Z,44.81
2019-05-07T15:37:28.000Z,44.83
2019-05-07T15:42:14.000Z,45.12
2019-05-07T15:47:02.000Z,45.27
2019-05-07T15:51:50.000Z,44.56
2019-05-07T15:56:38.000Z,45.21
2019-05-07T16:01:26.000Z,45.53
2019-05-07T16:06:15.000Z,45.61
2019-05-07T16:11:04.000Z,45.87
2019-05-07T16:15:51.000Z,45.96
2019-05-07T16:20:41.000Z,46.21
2019-05-07T16:25:28.000Z,46.10
2019-05-07T16:30:18.000Z,46.03
2019-05-07T16:35:05.000Z,46.35
2019-05-07T16:39:53.000Z,46.49
2019-05-07T16:44:41.000Z,46.61
2019-05-07T16:49:29.000Z,46.93
2019-05-07T16:54:17.000Z,46.98
2019-05-07T16:59:05.000Z,46.98
2019-05-07T17:03:53.000Z,47.00
2019-05-07T17:08:41.000Z,46.96
2019-05-07T17:13:29.000Z,47.13
2019-05-07T17:18:17.000Z,47.18
2019-05-07T17:23:05.000Z,47.52
2019-05-07T17:27:53.000Z,48.01
2019-05-07T17:32:41.000Z,48.39
2019-05-07T17:37:30.000Z,48.57
2019-05-07T17:42:16.000Z,48.76
2019-05-07T17:47:04.000Z,48.86
2019-05-07T17:51:53.000Z,49.08
2019-05-07T17:56:43.000Z,49.24
2019-05-07T18:01:29.000Z,49.64
2019-05-07T18:06:17.000Z,49.80
2019-05-07T18:11:04.000Z,49.93
2019-05-07T18:15:52.000Z,50.70
2019-05-07T18:20:41.000Z,50.80
2019-05-07T18:25:30.000Z,50.74
2019-05-07T18:30:16.000Z,51.01
2019-05-07T18:35:03.000Z,51.84
2019-05-07T18:39:51.000Z,52.61
2019-05-07T18:44:39.000Z,53.23
2019-05-07T18:49:28.000Z,53.22
2019-05-07T18:54:14.000Z,53.48
2019-05-07T18:59:02.000Z,53.88
2019-05-07T19:03:48.000Z,58.21
2019-05-07T19:08:36.000Z,58.00
2019-05-07T19:13:22.000Z,57.01
2019-05-07T19:18:10.000Z,56.54
2019-05-07T19:22:57.000Z,56.46
2019-05-07T19:27:44.000Z,57.34
2019-05-07T19:32:32.000Z,59.29
2019-05-07T19:37:18.000Z,61.83
2019-05-07T19:42:05.000Z,64.15
2019-05-07T19:46:53.000Z,64.46
2019-05-07T19:51:39.000Z,65.48
2019-05-07T19:56:26.000Z,65.99
2019-05-07T20:01:13.000Z,65.82
2019-05-07T20:06:01.000Z,66.46
2019-05-07T20:10:48.000Z,67.02
2019-05-07T20:15:35.000Z,68.97
2019-05-07T20:20:22.000Z,69.42
2019-05-07T20:25:11.000Z,69.98
2019-05-07T20:29:57.000Z,71.34
2019-05-07T20:34:44.000Z,72.24
2019-05-07T20:39:31.000Z,72.89
2019-05-07T20:44:18.000Z,72.34
2019-05-07T20:49:05.000Z,73.01
2019-05-07T20:53:52.000Z,72.69
2019-05-07T20:58:39.000Z,71.19
2019-05-07T21:03:26.000Z,71.10
2019-05-07T21:08:14.000Z,71.69
2019-05-07T21:13:00.000Z,73.13
2019-05-07T21:17:47.000Z,74.21
2019-05-07T21:22:34.000Z,74.73
2019-05-07T21:27:21.000Z,74.21
2019-05-07T21:32:08.000Z,75.10
2019-05-07T21:36:55.000Z,75.80
2019-05-07T21:41:42.000Z,76.34
2019-05-07T21:46:29.000Z,76.72
2019-05-07T21:51:16.000Z,76.80
2019-05-07T21:56:05.000Z,76.88
2019-05-07T22:00:51.000Z,77.06
2019-05-07T22:05:38.000Z,76.23
2019-05-07T22:10:25.000Z,75.37
2019-05-07T22:15:12.000Z,76.73
2019-05-07T22:19:59.000Z,77.27
2019-05-07T22:24:47.000Z,77.45
2019-05-07T22:29:33.000Z,77.12
2019-05-07T22:34:20.000Z,76.33
2019-05-07T22:39:07.000Z,77.54
2019-05-07T22:43:54.000Z,77.72
2019-05-07T22:48:43.000Z,77.46
2019-05-07T22:53:29.000Z,78.30
2019-05-07T22:58:16.000Z,79.12
2019-05-07T23:03:03.000Z,79.61
2019-05-07T23:07:52.000Z,80.44
2019-05-07T23:12:37.000Z,80.73
2019-05-07T23:17:23.000Z,80.71
2019-05-07T23:22:10.000Z,80.88
2019-05-07T23:26:57.000Z,80.40
2019-05-07T23:31:45.000Z,79.31
2019-05-07T23:36:32.000Z,79.76
2019-05-07T23:41:19.000Z,80.43
2019-05-07T23:46:06.000Z,81.23
2019-05-07T23:50:53.000Z,81.48
2019-05-07T23:55:40.000Z,81.91
